Forside
METAR-TAF:

METAR-TAF

Lufthavne :

Tunis, Tunesien

Breddekreds: 36-50N, længdekreds: 010-14E, højde: 3 m

Aktuelle vejr

Denne rapport blev lavet for 33 minutter siden, kl. 17:00 UTC
Vind 4 kt fra syd
Temperatur 22°C
Fugtighed 65%
Tryk 1014 hPa
Sigt 10 km eller mere
Spredte skyer i en højde af 2600 ft

METAR: DTTA 161700Z 17004KT 9999 SCT026 22/15 Q1014 NOSIG

Tid: 18:33 (17:33 UTC)

Vejrudsigter

Denne rapport blev lavet for 33 minutter siden, kl. 17:00 UTC
Foreløbig gælder fra 16 på 18 UTC til 17 på 18 UTC
Vind 5 kt fra syd
Sigt 10 km eller mere
Spredte skyer i en højde af 3300 ft
ændring
mellem og UTC
Midlertidig
fra 16 på 23 UTC til 17 på 17 UTC
Vind 17 kt fra øst med vindstød på up til 27 kt
Sigt: 3000 m
Spredte skyer i en højde af 2300 ft, Cumulonimbus.
tordenbyger, kraftig regnbyger

TAF: DTTA 161700Z 1618/1718 19005KT 9999 SCT033 BECMG TEMPO 1623/1717 10017G27KT 3000 TS +SHRA SCT023CB

Vejrobservationer og prognoser fra mere end 4000 lufthavne (METAR og TAF).

De gule og røde prikker repræsenterer de meteorologiske stationer.

Flyt musen over at se navnet på stationen.

Så klik over at se vejr observationer og prognoser.

At skifte det kort: Klik på de grønne knapper med et sort kors for at zoome ind; på den grønne knap med en bindestreg for at zoome ud; eller på de grønne pile for tilstødende kort.


METAR-TAF: